sensor_id;sensor_type;location;lat;lon;timestamp;P1;durP1;ratioP1;P2;durP2;ratioP2
50126;SDS011;36024;47.974;16.398;2023-03-31T00:01:51;2.00;;;1.10;;
50126;SDS011;36024;47.974;16.398;2023-03-31T00:04:18;1.70;;;1.10;;
50126;SDS011;36024;47.974;16.398;2023-03-31T00:06:49;1.47;;;1.00;;
50126;SDS011;36024;47.974;16.398;2023-03-31T00:09:20;1.30;;;1.20;;
50126;SDS011;36024;47.974;16.398;2023-03-31T00:11:50;1.73;;;1.07;;
50126;SDS011;36024;47.974;16.398;2023-03-31T00:14:18;2.77;;;1.10;;
50126;SDS011;36024;47.974;16.398;2023-03-31T00:16:46;2.00;;;1.30;;
50126;SDS011;36024;47.974;16.398;2023-03-31T00:19:13;2.17;;;1.23;;
50126;SDS011;36024;47.974;16.398;2023-03-31T00:21:47;2.30;;;1.23;;
50126;SDS011;36024;47.974;16.398;2023-03-31T00:24:14;2.90;;;1.50;;
50126;SDS011;36024;47.974;16.398;2023-03-31T00:26:41;2.63;;;1.70;;
50126;SDS011;36024;47.974;16.398;2023-03-31T00:29:10;2.67;;;1.40;;
50126;SDS011;36024;47.974;16.398;2023-03-31T00:31:38;2.90;;;1.50;;
50126;SDS011;36024;47.974;16.398;2023-03-31T00:34:05;2.10;;;1.73;;
50126;SDS011;36024;47.974;16.398;2023-03-31T00:36:32;3.30;;;1.60;;
50126;SDS011;36024;47.974;16.398;2023-03-31T00:39:04;2.10;;;1.60;;
50126;SDS011;36024;47.974;16.398;2023-03-31T00:41:35;2.23;;;1.73;;
50126;SDS011;36024;47.974;16.398;2023-03-31T00:46:51;3.17;;;1.77;;
50126;SDS011;36024;47.974;16.398;2023-03-31T00:51:50;2.57;;;1.70;;
50126;SDS011;36024;47.974;16.398;2023-03-31T00:54:18;3.37;;;1.90;;
50126;SDS011;36024;47.974;16.398;2023-03-31T00:56:46;1.97;;;1.57;;
50126;SDS011;36024;47.974;16.398;2023-03-31T00:59:14;2.20;;;1.60;;
50126;SDS011;36024;47.974;16.398;2023-03-31T01:01:42;2.50;;;1.60;;
50126;SDS011;36024;47.974;16.398;2023-03-31T01:04:11;2.63;;;1.60;;
50126;SDS011;36024;47.974;16.398;2023-03-31T01:06:42;3.43;;;1.97;;
50126;SDS011;36024;47.974;16.398;2023-03-31T01:09:15;1.83;;;1.57;;
50126;SDS011;36024;47.974;16.398;2023-03-31T01:11:43;2.20;;;1.67;;
50126;SDS011;36024;47.974;16.398;2023-03-31T01:14:11;2.20;;;1.70;;
50126;SDS011;36024;47.974;16.398;2023-03-31T01:16:38;3.17;;;1.97;;
50126;SDS011;36024;47.974;16.398;2023-03-31T01:19:07;1.90;;;1.80;;
50126;SDS011;36024;47.974;16.398;2023-03-31T01:21:44;2.93;;;1.93;;
50126;SDS011;36024;47.974;16.398;2023-03-31T01:27:20;2.80;;;2.30;;
50126;SDS011;36024;47.974;16.398;2023-03-31T01:35:48;5.83;;;4.73;;
50126;SDS011;36024;47.974;16.398;2023-03-31T01:44:32;10.57;;;7.33;;
50126;SDS011;36024;47.974;16.398;2023-03-31T01:47:13;5.70;;;4.63;;
50126;SDS011;36024;47.974;16.398;2023-03-31T01:49:56;5.27;;;4.17;;
50126;SDS011;36024;47.974;16.398;2023-03-31T01:57:54;9.67;;;7.70;;
50126;SDS011;36024;47.974;16.398;2023-03-31T02:00:29;19.87;;;12.03;;
50126;SDS011;36024;47.974;16.398;2023-03-31T02:05:46;7.97;;;5.30;;
50126;SDS011;36024;47.974;16.398;2023-03-31T02:08:17;5.20;;;3.20;;
50126;SDS011;36024;47.974;16.398;2023-03-31T02:10:48;3.23;;;2.93;;
50126;SDS011;36024;47.974;16.398;2023-03-31T02:13:17;2.60;;;2.30;;
50126;SDS011;36024;47.974;16.398;2023-03-31T02:15:45;2.93;;;2.23;;
50126;SDS011;36024;47.974;16.398;2023-03-31T02:18:15;2.87;;;2.27;;
50126;SDS011;36024;47.974;16.398;2023-03-31T02:20:45;2.20;;;2.00;;
50126;SDS011;36024;47.974;16.398;2023-03-31T02:23:14;2.00;;;1.80;;
50126;SDS011;36024;47.974;16.398;2023-03-31T02:25:47;2.90;;;1.90;;
50126;SDS011;36024;47.974;16.398;2023-03-31T02:28:21;2.23;;;1.80;;
50126;SDS011;36024;47.974;16.398;2023-03-31T02:33:40;1.90;;;1.80;;
50126;SDS011;36024;47.974;16.398;2023-03-31T02:36:07;2.70;;;2.27;;
50126;SDS011;36024;47.974;16.398;2023-03-31T02:38:36;2.80;;;2.00;;
50126;SDS011;36024;47.974;16.398;2023-03-31T02:41:07;4.17;;;2.17;;
50126;SDS011;36024;47.974;16.398;2023-03-31T02:43:34;2.20;;;2.00;;
50126;SDS011;36024;47.974;16.398;2023-03-31T02:46:01;2.87;;;2.03;;
50126;SDS011;36024;47.974;16.398;2023-03-31T02:48:48;3.20;;;2.10;;
50126;SDS011;36024;47.974;16.398;2023-03-31T02:54:12;6.37;;;4.27;;
50126;SDS011;36024;47.974;16.398;2023-03-31T02:57:04;5.20;;;4.00;;
50126;SDS011;36024;47.974;16.398;2023-03-31T03:00:10;9.63;;;6.57;;
50126;SDS011;36024;47.974;16.398;2023-03-31T03:03:01;5.50;;;3.80;;
50126;SDS011;36024;47.974;16.398;2023-03-31T03:05:47;5.03;;;2.57;;
50126;SDS011;36024;47.974;16.398;2023-03-31T03:08:51;2.83;;;2.27;;
50126;SDS011;36024;47.974;16.398;2023-03-31T03:11:45;2.70;;;2.30;;
50126;SDS011;36024;47.974;16.398;2023-03-31T03:17:06;2.73;;;2.40;;
50126;SDS011;36024;47.974;16.398;2023-03-31T03:19:36;3.37;;;2.60;;
50126;SDS011;36024;47.974;16.398;2023-03-31T03:22:03;3.37;;;2.70;;
50126;SDS011;36024;47.974;16.398;2023-03-31T03:24:30;5.77;;;3.10;;
50126;SDS011;36024;47.974;16.398;2023-03-31T03:26:59;9.07;;;7.13;;
50126;SDS011;36024;47.974;16.398;2023-03-31T03:29:26;5.67;;;4.47;;
50126;SDS011;36024;47.974;16.398;2023-03-31T03:31:53;7.83;;;5.10;;
50126;SDS011;36024;47.974;16.398;2023-03-31T03:34:20;7.33;;;5.73;;
50126;SDS011;36024;47.974;16.398;2023-03-31T03:36:47;7.73;;;5.63;;
50126;SDS011;36024;47.974;16.398;2023-03-31T03:39:14;5.20;;;4.07;;
50126;SDS011;36024;47.974;16.398;2023-03-31T03:41:41;6.53;;;5.20;;
50126;SDS011;36024;47.974;16.398;2023-03-31T03:44:07;7.60;;;5.37;;
50126;SDS011;36024;47.974;16.398;2023-03-31T03:46:34;8.47;;;5.00;;
50126;SDS011;36024;47.974;16.398;2023-03-31T03:49:01;4.57;;;3.63;;
50126;SDS011;36024;47.974;16.398;2023-03-31T03:51:28;3.70;;;2.80;;
50126;SDS011;36024;47.974;16.398;2023-03-31T03:53:54;4.53;;;3.00;;
50126;SDS011;36024;47.974;16.398;2023-03-31T03:56:21;3.87;;;2.80;;
50126;SDS011;36024;47.974;16.398;2023-03-31T03:58:48;4.10;;;2.67;;
50126;SDS011;36024;47.974;16.398;2023-03-31T04:01:16;3.20;;;2.47;;
50126;SDS011;36024;47.974;16.398;2023-03-31T04:03:43;4.03;;;3.00;;
50126;SDS011;36024;47.974;16.398;2023-03-31T04:06:10;3.23;;;2.70;;
50126;SDS011;36024;47.974;16.398;2023-03-31T04:08:37;4.23;;;3.00;;
50126;SDS011;36024;47.974;16.398;2023-03-31T04:11:08;4.60;;;2.90;;
50126;SDS011;36024;47.974;16.398;2023-03-31T04:13:40;4.70;;;2.77;;
50126;SDS011;36024;47.974;16.398;2023-03-31T04:16:07;4.53;;;2.90;;
50126;SDS011;36024;47.974;16.398;2023-03-31T04:18:34;2.90;;;2.60;;
50126;SDS011;36024;47.974;16.398;2023-03-31T04:21:02;4.33;;;2.87;;
50126;SDS011;36024;47.974;16.398;2023-03-31T04:23:35;4.80;;;2.80;;
50126;SDS011;36024;47.974;16.398;2023-03-31T04:26:12;3.23;;;2.70;;
50126;SDS011;36024;47.974;16.398;2023-03-31T04:28:40;3.93;;;2.77;;
50126;SDS011;36024;47.974;16.398;2023-03-31T04:31:08;6.10;;;2.90;;
50126;SDS011;36024;47.974;16.398;2023-03-31T04:33:36;3.63;;;2.70;;
50126;SDS011;36024;47.974;16.398;2023-03-31T04:36:06;3.70;;;2.70;;
50126;SDS011;36024;47.974;16.398;2023-03-31T04:38:51;4.83;;;2.73;;
50126;SDS011;36024;47.974;16.398;2023-03-31T04:41:22;3.50;;;2.60;;
50126;SDS011;36024;47.974;16.398;2023-03-31T04:43:53;3.80;;;2.90;;
50126;SDS011;36024;47.974;16.398;2023-03-31T04:46:23;4.37;;;2.77;;
50126;SDS011;36024;47.974;16.398;2023-03-31T04:49:10;3.13;;;2.60;;
50126;SDS011;36024;47.974;16.398;2023-03-31T04:51:37;11.40;;;7.27;;
50126;SDS011;36024;47.974;16.398;2023-03-31T04:54:06;10.93;;;8.63;;
50126;SDS011;36024;47.974;16.398;2023-03-31T04:56:32;5.23;;;3.50;;
50126;SDS011;36024;47.974;16.398;2023-03-31T04:58:59;4.10;;;2.60;;
50126;SDS011;36024;47.974;16.398;2023-03-31T05:01:26;3.50;;;2.70;;
50126;SDS011;36024;47.974;16.398;2023-03-31T05:03:53;3.77;;;2.63;;
50126;SDS011;36024;47.974;16.398;2023-03-31T05:06:20;2.90;;;2.40;;
50126;SDS011;36024;47.974;16.398;2023-03-31T05:08:47;4.13;;;2.70;;
50126;SDS011;36024;47.974;16.398;2023-03-31T05:11:13;2.70;;;2.40;;
50126;SDS011;36024;47.974;16.398;2023-03-31T05:13:40;3.40;;;2.73;;
50126;SDS011;36024;47.974;16.398;2023-03-31T05:16:08;4.07;;;2.57;;
50126;SDS011;36024;47.974;16.398;2023-03-31T05:18:36;4.60;;;2.30;;
50126;SDS011;36024;47.974;16.398;2023-03-31T05:21:07;2.63;;;2.17;;
50126;SDS011;36024;47.974;16.398;2023-03-31T05:23:41;3.63;;;2.43;;
50126;SDS011;36024;47.974;16.398;2023-03-31T05:26:08;4.07;;;2.27;;
50126;SDS011;36024;47.974;16.398;2023-03-31T05:28:35;4.73;;;2.50;;
50126;SDS011;36024;47.974;16.398;2023-03-31T05:31:02;2.90;;;2.27;;
50126;SDS011;36024;47.974;16.398;2023-03-31T05:33:30;3.50;;;2.30;;
50126;SDS011;36024;47.974;16.398;2023-03-31T05:35:57;4.50;;;2.50;;
50126;SDS011;36024;47.974;16.398;2023-03-31T05:38:26;2.50;;;2.27;;
50126;SDS011;36024;47.974;16.398;2023-03-31T05:40:57;4.57;;;2.30;;
50126;SDS011;36024;47.974;16.398;2023-03-31T05:43:23;3.43;;;2.30;;
50126;SDS011;36024;47.974;16.398;2023-03-31T05:45:51;3.87;;;2.53;;
50126;SDS011;36024;47.974;16.398;2023-03-31T05:48:17;2.97;;;2.20;;
50126;SDS011;36024;47.974;16.398;2023-03-31T05:50:44;3.33;;;2.20;;
50126;SDS011;36024;47.974;16.398;2023-03-31T05:53:11;4.20;;;2.53;;
50126;SDS011;36024;47.974;16.398;2023-03-31T05:55:38;5.10;;;2.40;;
50126;SDS011;36024;47.974;16.398;2023-03-31T05:58:05;2.60;;;2.10;;
50126;SDS011;36024;47.974;16.398;2023-03-31T06:00:32;3.23;;;2.50;;
50126;SDS011;36024;47.974;16.398;2023-03-31T06:02:59;3.53;;;2.47;;
50126;SDS011;36024;47.974;16.398;2023-03-31T06:05:26;4.40;;;2.80;;
50126;SDS011;36024;47.974;16.398;2023-03-31T06:07:54;3.93;;;2.37;;
50126;SDS011;36024;47.974;16.398;2023-03-31T06:10:20;2.93;;;2.40;;
50126;SDS011;36024;47.974;16.398;2023-03-31T06:12:47;3.40;;;2.20;;
50126;SDS011;36024;47.974;16.398;2023-03-31T06:15:14;4.07;;;2.53;;
50126;SDS011;36024;47.974;16.398;2023-03-31T06:17:41;5.20;;;2.50;;
50126;SDS011;36024;47.974;16.398;2023-03-31T06:20:08;4.33;;;2.60;;
50126;SDS011;36024;47.974;16.398;2023-03-31T06:22:49;3.10;;;2.43;;
50126;SDS011;36024;47.974;16.398;2023-03-31T06:25:16;2.83;;;2.20;;
50126;SDS011;36024;47.974;16.398;2023-03-31T06:27:43;4.70;;;2.57;;
50126;SDS011;36024;47.974;16.398;2023-03-31T06:30:10;3.17;;;2.63;;
50126;SDS011;36024;47.974;16.398;2023-03-31T06:32:37;2.93;;;2.37;;
50126;SDS011;36024;47.974;16.398;2023-03-31T06:35:04;3.17;;;2.40;;
50126;SDS011;36024;47.974;16.398;2023-03-31T06:37:31;3.40;;;2.17;;
50126;SDS011;36024;47.974;16.398;2023-03-31T06:39:58;2.77;;;2.20;;
50126;SDS011;36024;47.974;16.398;2023-03-31T06:42:24;2.90;;;2.30;;
50126;SDS011;36024;47.974;16.398;2023-03-31T06:44:51;3.43;;;2.40;;
50126;SDS011;36024;47.974;16.398;2023-03-31T06:47:18;4.07;;;2.60;;
50126;SDS011;36024;47.974;16.398;2023-03-31T06:49:45;3.00;;;2.27;;
50126;SDS011;36024;47.974;16.398;2023-03-31T06:52:11;2.33;;;1.97;;
50126;SDS011;36024;47.974;16.398;2023-03-31T06:54:38;5.60;;;2.50;;
50126;SDS011;36024;47.974;16.398;2023-03-31T06:57:05;3.60;;;2.10;;
50126;SDS011;36024;47.974;16.398;2023-03-31T06:59:32;3.80;;;2.47;;
50126;SDS011;36024;47.974;16.398;2023-03-31T07:01:58;4.90;;;2.63;;
50126;SDS011;36024;47.974;16.398;2023-03-31T07:04:26;3.40;;;2.50;;
50126;SDS011;36024;47.974;16.398;2023-03-31T07:06:52;3.23;;;2.40;;
50126;SDS011;36024;47.974;16.398;2023-03-31T07:09:19;3.13;;;2.57;;
50126;SDS011;36024;47.974;16.398;2023-03-31T07:11:49;4.47;;;2.27;;
50126;SDS011;36024;47.974;16.398;2023-03-31T07:14:16;2.83;;;2.50;;
50126;SDS011;36024;47.974;16.398;2023-03-31T07:16:42;4.97;;;2.70;;
50126;SDS011;36024;47.974;16.398;2023-03-31T07:19:09;5.33;;;2.77;;
50126;SDS011;36024;47.974;16.398;2023-03-31T07:21:36;3.03;;;2.40;;
50126;SDS011;36024;47.974;16.398;2023-03-31T07:24:03;3.00;;;2.70;;
50126;SDS011;36024;47.974;16.398;2023-03-31T07:26:32;2.63;;;2.20;;
50126;SDS011;36024;47.974;16.398;2023-03-31T07:28:59;4.03;;;2.07;;
50126;SDS011;36024;47.974;16.398;2023-03-31T07:31:25;2.40;;;2.20;;
50126;SDS011;36024;47.974;16.398;2023-03-31T07:33:52;3.53;;;2.57;;
50126;SDS011;36024;47.974;16.398;2023-03-31T07:36:19;2.87;;;2.20;;
50126;SDS011;36024;47.974;16.398;2023-03-31T07:38:47;3.30;;;2.50;;
50126;SDS011;36024;47.974;16.398;2023-03-31T07:41:16;3.07;;;2.20;;
50126;SDS011;36024;47.974;16.398;2023-03-31T07:43:44;2.23;;;2.03;;
50126;SDS011;36024;47.974;16.398;2023-03-31T07:46:22;2.93;;;2.20;;
50126;SDS011;36024;47.974;16.398;2023-03-31T07:48:50;2.90;;;2.20;;
50126;SDS011;36024;47.974;16.398;2023-03-31T07:51:19;3.00;;;2.50;;
50126;SDS011;36024;47.974;16.398;2023-03-31T07:53:47;4.20;;;2.30;;
50126;SDS011;36024;47.974;16.398;2023-03-31T07:56:14;4.37;;;2.23;;
50126;SDS011;36024;47.974;16.398;2023-03-31T07:58:42;3.73;;;2.53;;
50126;SDS011;36024;47.974;16.398;2023-03-31T08:01:12;4.13;;;2.40;;
50126;SDS011;36024;47.974;16.398;2023-03-31T08:03:43;2.60;;;2.40;;
50126;SDS011;36024;47.974;16.398;2023-03-31T08:06:16;3.53;;;2.37;;
50126;SDS011;36024;47.974;16.398;2023-03-31T08:08:44;4.30;;;2.43;;
50126;SDS011;36024;47.974;16.398;2023-03-31T08:11:10;2.30;;;2.10;;
50126;SDS011;36024;47.974;16.398;2023-03-31T08:13:37;2.70;;;2.50;;
50126;SDS011;36024;47.974;16.398;2023-03-31T08:16:04;3.10;;;2.40;;
50126;SDS011;36024;47.974;16.398;2023-03-31T08:18:31;2.97;;;2.50;;
50126;SDS011;36024;47.974;16.398;2023-03-31T08:20:58;3.50;;;2.43;;
50126;SDS011;36024;47.974;16.398;2023-03-31T08:23:25;2.57;;;2.30;;
50126;SDS011;36024;47.974;16.398;2023-03-31T08:25:52;3.37;;;2.30;;
50126;SDS011;36024;47.974;16.398;2023-03-31T08:28:19;3.57;;;2.40;;
50126;SDS011;36024;47.974;16.398;2023-03-31T08:30:45;2.70;;;2.47;;
50126;SDS011;36024;47.974;16.398;2023-03-31T08:33:12;2.70;;;2.40;;
50126;SDS011;36024;47.974;16.398;2023-03-31T08:35:39;5.40;;;2.90;;
50126;SDS011;36024;47.974;16.398;2023-03-31T08:38:06;3.60;;;2.57;;
50126;SDS011;36024;47.974;16.398;2023-03-31T08:40:33;2.87;;;2.67;;
50126;SDS011;36024;47.974;16.398;2023-03-31T08:43:14;3.53;;;2.50;;
50126;SDS011;36024;47.974;16.398;2023-03-31T08:45:45;4.03;;;2.90;;
50126;SDS011;36024;47.974;16.398;2023-03-31T08:51:11;2.70;;;2.50;;
50126;SDS011;36024;47.974;16.398;2023-03-31T08:53:41;3.90;;;3.03;;
50126;SDS011;36024;47.974;16.398;2023-03-31T08:56:14;3.17;;;2.97;;
50126;SDS011;36024;47.974;16.398;2023-03-31T08:58:43;3.30;;;3.00;;
50126;SDS011;36024;47.974;16.398;2023-03-31T09:01:23;2.90;;;2.70;;
50126;SDS011;36024;47.974;16.398;2023-03-31T09:07:02;3.40;;;3.10;;
50126;SDS011;36024;47.974;16.398;2023-03-31T09:12:05;3.57;;;3.27;;
50126;SDS011;36024;47.974;16.398;2023-03-31T09:17:41;3.50;;;3.20;;
50126;SDS011;36024;47.974;16.398;2023-03-31T09:25:44;3.50;;;2.93;;
50126;SDS011;36024;47.974;16.398;2023-03-31T09:28:13;3.30;;;3.00;;
50126;SDS011;36024;47.974;16.398;2023-03-31T09:30:46;3.13;;;2.83;;
50126;SDS011;36024;47.974;16.398;2023-03-31T09:33:18;3.37;;;2.90;;
50126;SDS011;36024;47.974;16.398;2023-03-31T09:35:53;3.53;;;2.90;;
50126;SDS011;36024;47.974;16.398;2023-03-31T09:38:20;4.40;;;4.00;;
50126;SDS011;36024;47.974;16.398;2023-03-31T09:40:47;5.80;;;5.20;;
50126;SDS011;36024;47.974;16.398;2023-03-31T09:43:19;3.73;;;2.87;;
50126;SDS011;36024;47.974;16.398;2023-03-31T09:45:48;4.33;;;3.30;;
50126;SDS011;36024;47.974;16.398;2023-03-31T09:48:34;4.53;;;3.30;;
50126;SDS011;36024;47.974;16.398;2023-03-31T09:51:13;3.33;;;3.00;;
50126;SDS011;36024;47.974;16.398;2023-03-31T09:53:55;3.60;;;3.23;;
50126;SDS011;36024;47.974;16.398;2023-03-31T09:56:59;3.43;;;2.70;;
50126;SDS011;36024;47.974;16.398;2023-03-31T09:59:32;2.70;;;2.50;;
50126;SDS011;36024;47.974;16.398;2023-03-31T10:02:04;3.23;;;2.93;;
50126;SDS011;36024;47.974;16.398;2023-03-31T10:04:48;3.30;;;3.00;;
50126;SDS011;36024;47.974;16.398;2023-03-31T10:07:19;3.40;;;3.10;;
50126;SDS011;36024;47.974;16.398;2023-03-31T10:09:47;3.17;;;2.90;;
50126;SDS011;36024;47.974;16.398;2023-03-31T10:12:24;4.47;;;2.80;;
50126;SDS011;36024;47.974;16.398;2023-03-31T10:14:52;3.07;;;2.77;;
50126;SDS011;36024;47.974;16.398;2023-03-31T10:17:21;3.50;;;2.83;;
50126;SDS011;36024;47.974;16.398;2023-03-31T10:24:47;3.40;;;2.97;;
50126;SDS011;36024;47.974;16.398;2023-03-31T10:27:25;3.00;;;2.70;;
50126;SDS011;36024;47.974;16.398;2023-03-31T10:29:57;3.17;;;2.80;;
50126;SDS011;36024;47.974;16.398;2023-03-31T10:34:55;3.10;;;2.80;;
50126;SDS011;36024;47.974;16.398;2023-03-31T10:37:23;4.27;;;3.00;;
50126;SDS011;36024;47.974;16.398;2023-03-31T10:39:59;2.97;;;2.50;;
50126;SDS011;36024;47.974;16.398;2023-03-31T10:42:27;3.43;;;2.70;;
50126;SDS011;36024;47.974;16.398;2023-03-31T10:45:23;3.17;;;2.87;;
50126;SDS011;36024;47.974;16.398;2023-03-31T10:48:03;2.77;;;2.57;;
50126;SDS011;36024;47.974;16.398;2023-03-31T10:50:34;3.23;;;2.80;;
50126;SDS011;36024;47.974;16.398;2023-03-31T10:55:38;3.63;;;2.70;;
50126;SDS011;36024;47.974;16.398;2023-03-31T11:01:20;2.87;;;2.50;;
50126;SDS011;36024;47.974;16.398;2023-03-31T11:06:44;3.07;;;2.73;;
50126;SDS011;36024;47.974;16.398;2023-03-31T11:09:26;2.70;;;2.50;;
50126;SDS011;36024;47.974;16.398;2023-03-31T11:14:59;4.57;;;2.80;;
50126;SDS011;36024;47.974;16.398;2023-03-31T11:20:27;4.47;;;3.50;;
50126;SDS011;36024;47.974;16.398;2023-03-31T11:26:03;4.03;;;2.97;;
50126;SDS011;36024;47.974;16.398;2023-03-31T11:31:32;3.30;;;2.70;;
50126;SDS011;36024;47.974;16.398;2023-03-31T11:34:21;3.03;;;2.73;;
50126;SDS011;36024;47.974;16.398;2023-03-31T11:39:51;4.13;;;3.30;;
50126;SDS011;36024;47.974;16.398;2023-03-31T11:42:26;4.47;;;3.60;;
50126;SDS011;36024;47.974;16.398;2023-03-31T11:44:59;4.90;;;3.40;;
50126;SDS011;36024;47.974;16.398;2023-03-31T11:47:30;4.83;;;3.80;;
50126;SDS011;36024;47.974;16.398;2023-03-31T11:50:02;3.50;;;3.20;;
50126;SDS011;36024;47.974;16.398;2023-03-31T11:52:33;3.17;;;2.87;;
50126;SDS011;36024;47.974;16.398;2023-03-31T11:57:41;2.93;;;2.63;;
50126;SDS011;36024;47.974;16.398;2023-03-31T12:05:21;3.30;;;2.60;;
50126;SDS011;36024;47.974;16.398;2023-03-31T12:10:31;3.30;;;2.77;;
50126;SDS011;36024;47.974;16.398;2023-03-31T12:13:04;3.17;;;2.87;;
50126;SDS011;36024;47.974;16.398;2023-03-31T12:15:57;2.77;;;2.47;;
50126;SDS011;36024;47.974;16.398;2023-03-31T12:18:29;2.30;;;2.10;;
50126;SDS011;36024;47.974;16.398;2023-03-31T12:20:59;2.73;;;2.30;;
50126;SDS011;36024;47.974;16.398;2023-03-31T12:23:29;2.40;;;1.80;;
50126;SDS011;36024;47.974;16.398;2023-03-31T12:29:06;2.97;;;2.30;;
50126;SDS011;36024;47.974;16.398;2023-03-31T12:31:59;3.10;;;2.00;;
50126;SDS011;36024;47.974;16.398;2023-03-31T12:34:29;3.23;;;2.17;;
50126;SDS011;36024;47.974;16.398;2023-03-31T12:40:09;2.80;;;2.50;;
50126;SDS011;36024;47.974;16.398;2023-03-31T12:42:48;2.43;;;2.17;;
50126;SDS011;36024;47.974;16.398;2023-03-31T12:45:28;3.10;;;2.30;;
50126;SDS011;36024;47.974;16.398;2023-03-31T12:50:45;2.47;;;2.10;;
50126;SDS011;36024;47.974;16.398;2023-03-31T12:53:32;4.27;;;2.47;;
50126;SDS011;36024;47.974;16.398;2023-03-31T12:56:10;2.60;;;2.40;;
50126;SDS011;36024;47.974;16.398;2023-03-31T12:58:37;3.37;;;2.60;;
50126;SDS011;36024;47.974;16.398;2023-03-31T13:01:11;3.37;;;3.07;;
50126;SDS011;36024;47.974;16.398;2023-03-31T13:06:56;6.70;;;4.60;;
50126;SDS011;36024;47.974;16.398;2023-03-31T13:12:13;4.30;;;3.67;;
50126;SDS011;36024;47.974;16.398;2023-03-31T13:14:42;3.50;;;3.20;;
50126;SDS011;36024;47.974;16.398;2023-03-31T13:17:22;3.80;;;3.20;;
50126;SDS011;36024;47.974;16.398;2023-03-31T13:19:50;2.97;;;2.50;;
50126;SDS011;36024;47.974;16.398;2023-03-31T13:22:34;3.80;;;2.67;;
50126;SDS011;36024;47.974;16.398;2023-03-31T13:27:57;2.97;;;2.67;;
50126;SDS011;36024;47.974;16.398;2023-03-31T13:33:18;3.40;;;2.40;;
50126;SDS011;36024;47.974;16.398;2023-03-31T13:35:52;3.43;;;3.13;;
50126;SDS011;36024;47.974;16.398;2023-03-31T13:41:07;2.70;;;2.33;;
50126;SDS011;36024;47.974;16.398;2023-03-31T13:57:30;2.90;;;2.70;;
50126;SDS011;36024;47.974;16.398;2023-03-31T14:05:39;3.70;;;2.40;;
50126;SDS011;36024;47.974;16.398;2023-03-31T14:08:10;2.97;;;2.27;;
50126;SDS011;36024;47.974;16.398;2023-03-31T14:10:38;2.90;;;2.70;;
50126;SDS011;36024;47.974;16.398;2023-03-31T14:15:39;5.63;;;2.37;;
50126;SDS011;36024;47.974;16.398;2023-03-31T14:18:40;3.43;;;2.50;;
50126;SDS011;36024;47.974;16.398;2023-03-31T14:26:16;2.57;;;2.30;;
50126;SDS011;36024;47.974;16.398;2023-03-31T14:35:00;3.30;;;3.00;;
50126;SDS011;36024;47.974;16.398;2023-03-31T14:37:29;2.90;;;2.70;;
50126;SDS011;36024;47.974;16.398;2023-03-31T14:39:56;3.03;;;2.60;;
50126;SDS011;36024;47.974;16.398;2023-03-31T14:42:28;4.07;;;2.70;;
50126;SDS011;36024;47.974;16.398;2023-03-31T14:45:02;3.73;;;2.60;;
50126;SDS011;36024;47.974;16.398;2023-03-31T14:47:30;4.53;;;2.50;;
50126;SDS011;36024;47.974;16.398;2023-03-31T14:50:01;6.40;;;4.00;;
50126;SDS011;36024;47.974;16.398;2023-03-31T14:52:32;2.77;;;2.30;;
50126;SDS011;36024;47.974;16.398;2023-03-31T14:55:01;2.60;;;2.00;;
50126;SDS011;36024;47.974;16.398;2023-03-31T14:57:29;3.77;;;2.40;;
50126;SDS011;36024;47.974;16.398;2023-03-31T14:59:58;3.03;;;2.10;;
50126;SDS011;36024;47.974;16.398;2023-03-31T15:02:31;1.77;;;1.67;;
50126;SDS011;36024;47.974;16.398;2023-03-31T15:05:03;2.27;;;2.00;;
50126;SDS011;36024;47.974;16.398;2023-03-31T15:07:33;1.97;;;1.77;;
50126;SDS011;36024;47.974;16.398;2023-03-31T15:10:00;3.47;;;1.77;;
50126;SDS011;36024;47.974;16.398;2023-03-31T15:12:28;2.27;;;1.40;;
50126;SDS011;36024;47.974;16.398;2023-03-31T15:14:56;1.93;;;1.43;;
50126;SDS011;36024;47.974;16.398;2023-03-31T15:17:29;1.30;;;1.20;;
50126;SDS011;36024;47.974;16.398;2023-03-31T15:20:00;2.17;;;1.20;;
50126;SDS011;36024;47.974;16.398;2023-03-31T15:22:30;1.30;;;1.00;;
50126;SDS011;36024;47.974;16.398;2023-03-31T15:24:56;1.20;;;1.00;;
50126;SDS011;36024;47.974;16.398;2023-03-31T15:27:29;2.17;;;1.20;;
50126;SDS011;36024;47.974;16.398;2023-03-31T15:30:04;3.57;;;1.10;;
50126;SDS011;36024;47.974;16.398;2023-03-31T15:32:36;2.40;;;1.07;;
50126;SDS011;36024;47.974;16.398;2023-03-31T15:35:05;2.10;;;1.10;;
50126;SDS011;36024;47.974;16.398;2023-03-31T15:37:48;1.50;;;1.00;;
50126;SDS011;36024;47.974;16.398;2023-03-31T15:42:48;2.13;;;1.20;;
50126;SDS011;36024;47.974;16.398;2023-03-31T15:45:46;1.73;;;1.10;;
50126;SDS011;36024;47.974;16.398;2023-03-31T15:48:28;1.33;;;1.00;;
50126;SDS011;36024;47.974;16.398;2023-03-31T15:51:00;2.10;;;1.20;;
50126;SDS011;36024;47.974;16.398;2023-03-31T15:53:49;1.47;;;1.10;;
50126;SDS011;36024;47.974;16.398;2023-03-31T15:59:03;2.23;;;1.00;;
50126;SDS011;36024;47.974;16.398;2023-03-31T16:02:04;2.83;;;1.30;;
50126;SDS011;36024;47.974;16.398;2023-03-31T16:04:29;1.50;;;1.40;;
50126;SDS011;36024;47.974;16.398;2023-03-31T16:07:01;15.87;;;9.03;;
50126;SDS011;36024;47.974;16.398;2023-03-31T16:09:50;2.47;;;1.30;;
50126;SDS011;36024;47.974;16.398;2023-03-31T16:12:19;3.63;;;1.40;;
50126;SDS011;36024;47.974;16.398;2023-03-31T16:15:05;1.33;;;1.20;;
50126;SDS011;36024;47.974;16.398;2023-03-31T16:17:53;1.67;;;1.30;;
50126;SDS011;36024;47.974;16.398;2023-03-31T16:22:54;1.37;;;1.20;;
50126;SDS011;36024;47.974;16.398;2023-03-31T16:25:25;1.93;;;1.10;;
50126;SDS011;36024;47.974;16.398;2023-03-31T16:27:54;2.97;;;1.07;;
50126;SDS011;36024;47.974;16.398;2023-03-31T16:30:38;1.60;;;1.30;;
50126;SDS011;36024;47.974;16.398;2023-03-31T16:33:08;1.13;;;1.00;;
50126;SDS011;36024;47.974;16.398;2023-03-31T16:35:43;1.07;;;0.90;;
50126;SDS011;36024;47.974;16.398;2023-03-31T16:38:14;1.97;;;1.20;;
50126;SDS011;36024;47.974;16.398;2023-03-31T16:40:43;2.10;;;1.07;;
50126;SDS011;36024;47.974;16.398;2023-03-31T16:43:20;1.33;;;1.07;;
50126;SDS011;36024;47.974;16.398;2023-03-31T16:45:49;1.00;;;0.90;;
50126;SDS011;36024;47.974;16.398;2023-03-31T16:48:17;1.50;;;1.20;;
50126;SDS011;36024;47.974;16.398;2023-03-31T16:50:45;1.27;;;1.10;;
50126;SDS011;36024;47.974;16.398;2023-03-31T16:53:14;1.40;;;1.30;;
50126;SDS011;36024;47.974;16.398;2023-03-31T16:55:42;2.20;;;2.00;;
50126;SDS011;36024;47.974;16.398;2023-03-31T16:58:08;8.20;;;6.00;;
50126;SDS011;36024;47.974;16.398;2023-03-31T17:00:37;1.93;;;1.50;;
50126;SDS011;36024;47.974;16.398;2023-03-31T17:03:06;3.40;;;3.10;;
50126;SDS011;36024;47.974;16.398;2023-03-31T17:05:41;3.10;;;2.00;;
50126;SDS011;36024;47.974;16.398;2023-03-31T17:08:09;2.90;;;1.40;;
50126;SDS011;36024;47.974;16.398;2023-03-31T17:10:37;1.47;;;1.23;;
50126;SDS011;36024;47.974;16.398;2023-03-31T17:13:05;1.27;;;1.00;;
50126;SDS011;36024;47.974;16.398;2023-03-31T17:15:32;1.37;;;1.17;;
50126;SDS011;36024;47.974;16.398;2023-03-31T17:18:02;1.40;;;1.13;;
50126;SDS011;36024;47.974;16.398;2023-03-31T17:20:30;1.90;;;1.10;;
50126;SDS011;36024;47.974;16.398;2023-03-31T17:22:58;1.90;;;1.20;;
50126;SDS011;36024;47.974;16.398;2023-03-31T17:25:25;1.17;;;1.07;;
50126;SDS011;36024;47.974;16.398;2023-03-31T17:27:52;1.90;;;1.10;;
50126;SDS011;36024;47.974;16.398;2023-03-31T17:30:21;1.50;;;1.40;;
50126;SDS011;36024;47.974;16.398;2023-03-31T17:32:48;1.57;;;0.90;;
50126;SDS011;36024;47.974;16.398;2023-03-31T17:35:17;1.30;;;1.20;;
50126;SDS011;36024;47.974;16.398;2023-03-31T17:37:47;1.60;;;1.20;;